Time;durP1;ratioP1;P1;durP2;ratioP2;P2;SDS_P1;SDS_P2;PMS_P1;PMS_P2;Temp;Humidity;BMP_temperature;BMP_pressure;BME280_temperature;BME280_humidity;BME280_pressure;Samples;Min_cycle;Max_cycle;Signal;HPM_P1;HPM_P2
2021/03/28 00:01:58;;;;;;;5.60;1.60;;;;;;;-0.02;100.00;95009.34;5093703;28;20589;-77
2021/03/28 00:04:27;;;;;;;1.50;1.10;;;;;;;-0.07;100.00;95013.13;5094905;28;20205;-78
2021/03/28 00:06:59;;;;;;;2.87;1.27;;;;;;;-0.19;100.00;95004.50;5093993;28;20293;-79
2021/03/28 00:09:28;;;;;;;4.60;1.37;;;;;;;-0.29;100.00;95016.31;5094855;28;20312;-78
2021/03/28 00:11:58;;;;;;;5.27;1.77;;;;;;;-0.28;100.00;95002.59;5094672;28;20202;-78
2021/03/28 00:14:42;;;;;;;3.53;1.27;;;;;;;-0.36;100.00;94999.72;5093939;28;20538;-78
2021/03/28 00:17:25;;;;;;;2.83;1.23;;;;;;;-0.45;100.00;95006.25;5093219;28;20206;-78
2021/03/28 00:19:56;;;;;;;3.63;1.40;;;;;;;-0.54;100.00;95012.03;5093937;28;20244;-79
2021/03/28 00:22:29;;;;;;;3.73;1.60;;;;;;;-0.53;100.00;95009.34;5094186;28;20652;-79
2021/03/28 00:24:59;;;;;;;4.03;1.33;;;;;;;-0.44;100.00;95008.72;5093829;28;20317;-77
2021/03/28 00:27:29;;;;;;;5.43;1.33;;;;;;;-0.48;100.00;95007.31;5094050;28;20226;-78
2021/03/28 00:30:01;;;;;;;5.30;1.33;;;;;;;-0.66;100.00;95000.84;5094077;28;20292;-78
2021/03/28 00:32:41;;;;;;;3.58;1.40;;;;;;;-0.77;100.00;95002.38;5093297;28;20459;-78
2021/03/28 00:35:10;;;;;;;4.33;1.40;;;;;;;-0.92;100.00;95003.34;5094435;28;20205;-77
2021/03/28 00:37:38;;;;;;;3.43;1.90;;;;;;;-0.99;100.00;94997.81;5093906;28;20209;-78
2021/03/28 00:40:16;;;;;;;7.80;1.37;;;;;;;-0.86;100.00;95005.53;5094078;28;20198;-77
2021/03/28 00:42:45;;;;;;;6.00;1.83;;;;;;;-0.90;100.00;94996.38;5093333;28;20213;-79
2021/03/28 00:45:18;;;;;;;6.43;1.70;;;;;;;-0.91;100.00;94999.06;5093723;28;20206;-77
2021/03/28 00:47:49;;;;;;;11.47;1.37;;;;;;;-0.95;100.00;94995.84;5093317;28;20232;-77
2021/03/28 00:50:29;;;;;;;2.87;1.20;;;;;;;-1.15;100.00;94997.16;5093507;28;20233;-77
2021/03/28 00:52:58;;;;;;;7.33;1.60;;;;;;;-1.21;100.00;94998.38;5093467;28;20205;-77
2021/03/28 00:55:27;;;;;;;6.73;2.07;;;;;;;-1.32;100.00;95001.63;5093395;28;20682;-77
2021/03/28 00:58:17;;;;;;;4.50;1.33;;;;;;;-1.35;100.00;95000.97;5093789;28;20202;-77
2021/03/28 01:00:53;;;;;;;4.30;1.40;;;;;;;-1.37;100.00;94997.72;5089381;28;20206;-79
2021/03/28 01:03:33;;;;;;;2.47;1.33;;;;;;;-1.49;100.00;94995.00;5093560;28;20198;-77
2021/03/28 01:06:12;;;;;;;7.30;1.43;;;;;;;-1.54;100.00;94997.03;5093170;28;20587;-77
2021/03/28 01:08:43;;;;;;;6.03;1.30;;;;;;;-1.62;100.00;94989.00;5092967;28;20221;-76
2021/03/28 01:11:28;;;;;;;4.27;1.40;;;;;;;-1.61;100.00;94988.09;5092385;28;20206;-79
2021/03/28 01:14:25;;;;;;;5.13;1.58;;;;;;;-1.58;100.00;94990.47;5092753;28;20486;-78
2021/03/28 01:17:30;;;;;;;9.23;1.50;;;;;;;-1.54;100.00;94989.34;5093287;28;20205;-78
2021/03/28 01:20:20;;;;;;;1.90;1.27;;;;;;;-1.54;100.00;94991.91;5092109;28;20230;-78
2021/03/28 01:22:58;;;;;;;4.13;1.40;;;;;;;-1.56;100.00;94985.25;5093385;28;20242;-79
2021/03/28 01:25:41;;;;;;;1.97;1.23;;;;;;;-1.67;100.00;94975.69;5091820;28;20247;-77
2021/03/28 01:28:17;;;;;;;6.53;1.37;;;;;;;-1.52;100.00;94974.69;5092874;28;20258;-79
2021/03/28 01:30:47;;;;;;;6.60;1.10;;;;;;;-1.42;100.00;94974.13;5092851;28;20204;-78
2021/03/28 01:33:16;;;;;;;2.50;1.20;;;;;;;-1.47;100.00;94971.84;5092201;28;20247;-77
2021/03/28 01:35:54;;;;;;;6.70;1.37;;;;;;;-1.43;100.00;94965.63;5092776;28;20202;-77
2021/03/28 01:38:24;;;;;;;7.17;1.40;;;;;;;-1.51;100.00;94970.44;5092847;28;20202;-79
2021/03/28 01:40:56;;;;;;;6.77;1.67;;;;;;;-1.54;100.00;94975.72;5093040;28;20218;-77
2021/03/28 01:43:29;;;;;;;3.57;1.40;;;;;;;-1.47;100.00;94971.03;5093327;28;20606;-77
2021/03/28 01:46:02;;;;;;;6.43;1.60;;;;;;;-1.60;100.00;94976.97;5092179;28;20206;-77
2021/03/28 01:48:41;;;;;;;4.47;1.43;;;;;;;-1.55;100.00;94974.09;5092568;28;20366;-79
2021/03/28 01:51:48;;;;;;;10.07;1.40;;;;;;;-1.47;100.00;94965.94;5092854;28;20205;-79
2021/03/28 01:54:20;;;;;;;3.53;1.20;;;;;;;-1.59;100.00;94976.00;5084251;28;20193;-79
2021/03/28 01:56:54;;;;;;;2.90;1.23;;;;;;;-1.69;100.00;94973.22;5092460;28;20194;-78
2021/03/28 01:59:30;;;;;;;5.97;1.30;;;;;;;-1.57;100.00;94970.81;5092882;28;20568;-77
2021/03/28 02:02:03;;;;;;;6.37;1.40;;;;;;;-1.66;100.00;94976.53;5093106;28;20198;-77
2021/03/28 02:04:42;;;;;;;5.47;1.50;;;;;;;-1.64;100.00;94975.50;5092158;28;20255;-79
2021/03/28 02:07:39;;;;;;;6.10;1.50;;;;;;;-1.75;100.00;94983.00;5092563;28;20204;-79
2021/03/28 02:10:18;;;;;;;7.97;1.20;;;;;;;-1.77;100.00;94984.84;5087643;28;20210;-77
2021/03/28 02:12:48;;;;;;;5.77;1.17;;;;;;;-1.89;100.00;94982.13;5092951;28;20203;-80
2021/03/28 02:15:30;;;;;;;4.47;1.20;;;;;;;-1.91;100.00;94975.47;5092620;28;20197;-79
2021/03/28 02:18:08;;;;;;;1.67;1.20;;;;;;;-1.90;100.00;94975.38;5092337;28;20198;-78
2021/03/28 02:20:46;;;;;;;5.33;1.33;;;;;;;-1.82;100.00;94986.88;5092512;28;20236;-80
2021/03/28 02:23:23;;;;;;;8.90;1.27;;;;;;;-1.63;100.00;94976.31;5092494;28;20193;-78
2021/03/28 02:25:56;;;;;;;4.30;1.10;;;;;;;-1.72;100.00;94978.50;5092693;28;20197;-79
2021/03/28 02:28:33;;;;;;;8.67;1.40;;;;;;;-1.82;100.00;94977.44;5092501;28;20607;-79
2021/03/28 02:31:08;;;;;;;2.90;1.20;;;;;;;-1.77;100.00;94979.72;5091156;28;20202;-77
2021/03/28 02:33:48;;;;;;;4.57;1.27;;;;;;;-1.53;100.00;94975.63;5091571;28;20203;-79
2021/03/28 02:36:20;;;;;;;6.83;1.43;;;;;;;-1.57;100.00;94978.47;5092655;28;20198;-77
2021/03/28 02:39:28;;;;;;;9.80;1.30;;;;;;;-1.61;100.00;94975.31;5092620;28;20198;-77
2021/03/28 02:42:16;;;;;;;1.33;0.97;;;;;;;-1.78;100.00;94978.91;5084632;28;20217;-76
2021/03/28 02:44:58;;;;;;;3.00;1.20;;;;;;;-1.94;100.00;94981.59;5091828;28;20305;-77
2021/03/28 02:48:02;;;;;;;7.53;1.40;;;;;;;-1.99;100.00;94975.94;5092628;28;20225;-79
2021/03/28 02:50:46;;;;;;;6.23;1.50;;;;;;;-1.87;100.00;94975.16;5094510;28;20232;-77
2021/03/28 02:53:23;;;;;;;3.33;1.27;;;;;;;-1.80;100.00;94979.91;5095595;28;20656;-78
2021/03/28 02:56:24;;;;;;;2.60;1.40;;;;;;;-1.69;100.00;94972.41;5095439;28;20561;-76
2021/03/28 02:59:05;;;;;;;8.10;1.67;;;;;;;-1.66;100.00;94977.34;5095855;28;20722;-79
2021/03/28 03:01:47;;;;;;;7.83;1.53;;;;;;;-1.62;100.00;94983.88;5094840;28;20202;-78
2021/03/28 03:04:31;;;;;;;5.83;1.27;;;;;;;-1.57;100.00;94975.91;5095862;28;20201;-77
2021/03/28 03:07:32;;;;;;;7.50;1.13;;;;;;;-1.47;100.00;94978.72;5095913;28;20201;-77
2021/03/28 03:10:15;;;;;;;5.90;1.30;;;;;;;-1.70;100.00;94974.16;5092666;28;20653;-77
2021/03/28 03:12:51;;;;;;;4.27;1.30;;;;;;;-1.75;100.00;94983.00;5095738;28;20565;-77
2021/03/28 03:15:24;;;;;;;9.37;1.50;;;;;;;-1.84;100.00;94978.47;5095543;28;20197;-77
2021/03/28 03:18:38;;;;;;;11.57;1.60;;;;;;;-1.71;100.00;94974.25;5095265;28;20232;-77
2021/03/28 03:21:48;;;;;;;4.80;1.50;;;;;;;-1.68;100.00;94979.97;5095476;28;20229;-76
2021/03/28 03:25:17;;;;;;;3.00;1.30;;;;;;;-1.84;100.00;94976.72;5095400;28;20243;-76
2021/03/28 03:28:13;;;;;;;9.87;1.47;;;;;;;-1.95;100.00;94977.41;5032164;28;20232;-77
2021/03/28 03:30:55;;;;;;;2.87;1.20;;;;;;;-1.88;100.00;94972.72;5091779;28;20194;-77
2021/03/28 03:34:04;;;;;;;4.83;1.37;;;;;;;-1.84;100.00;94970.81;5095106;28;20201;-78
2021/03/28 03:36:50;;;;;;;2.53;1.10;;;;;;;-1.82;100.00;94974.09;5095125;28;20229;-76
2021/03/28 03:39:33;;;;;;;4.87;1.10;;;;;;;-1.98;100.00;94977.59;5094686;28;20220;-76
2021/03/28 03:42:16;;;;;;;3.67;1.20;;;;;;;-1.74;100.00;94974.44;5095574;28;20259;-77
2021/03/28 03:45:17;;;;;;;9.33;1.33;;;;;;;-1.64;100.00;94975.50;5094812;28;20642;-76
2021/03/28 03:47:57;;;;;;;8.93;1.40;;;;;;;-1.65;100.00;94978.94;5059882;28;20218;-80
2021/03/28 03:50:49;;;;;;;4.03;1.10;;;;;;;-1.78;100.00;94983.19;5095317;28;20201;-78
2021/03/28 03:53:25;;;;;;;7.53;1.73;;;;;;;-1.76;100.00;94984.75;5095010;28;20202;-77
2021/03/28 03:55:59;;;;;;;4.03;1.60;;;;;;;-1.84;100.00;94981.03;5095004;28;20202;-78
2021/03/28 03:58:33;;;;;;;1.83;1.10;;;;;;;-1.72;100.00;94978.50;5093827;28;20206;-78
2021/03/28 04:01:09;;;;;;;4.17;1.17;;;;;;;-1.72;100.00;94983.63;5094281;28;20202;-79
2021/03/28 04:03:54;;;;;;;7.10;1.30;;;;;;;-1.82;100.00;94981.75;5094951;28;20292;-76
2021/03/28 04:06:47;;;;;;;4.13;1.30;;;;;;;-1.84;100.00;94978.47;5094658;28;20202;-76
2021/03/28 04:09:24;;;;;;;3.30;1.30;;;;;;;-1.91;100.00;94983.97;5094283;28;20702;-78
2021/03/28 04:12:12;;;;;;;22.20;1.50;;;;;;;-2.01;100.00;94980.34;5094649;28;20227;-79
2021/03/28 04:14:54;;;;;;;8.23;1.40;;;;;;;-1.91;100.00;94978.03;5093868;28;20429;-78
2021/03/28 04:17:36;;;;;;;16.30;1.80;;;;;;;-1.87;100.00;94980.28;5094505;28;20259;-77
2021/03/28 04:20:10;;;;;;;6.10;1.10;;;;;;;-1.88;100.00;94983.78;5094346;28;20265;-78
2021/03/28 04:23:11;;;;;;;3.70;1.20;;;;;;;-1.89;100.00;94982.13;5093531;28;20671;-77
2021/03/28 04:25:49;;;;;;;6.57;1.63;;;;;;;-1.92;100.00;94994.28;5083616;28;20194;-77
2021/03/28 04:28:43;;;;;;;9.37;1.47;;;;;;;-2.01;100.00;94993.13;5094266;28;20229;-76
2021/03/28 04:31:47;;;;;;;4.50;1.10;;;;;;;-1.88;100.00;94988.91;5093395;28;20216;-77
2021/03/28 04:34:18;;;;;;;7.70;1.10;;;;;;;-1.92;100.00;94987.44;5092726;28;20201;-78
2021/03/28 04:37:02;;;;;;;4.40;1.20;;;;;;;-1.90;100.00;94992.47;5094268;28;20205;-79
2021/03/28 04:39:56;;;;;;;3.40;1.33;;;;;;;-1.99;100.00;95004.09;5094177;28;20202;-78
2021/03/28 04:42:43;;;;;;;3.83;1.40;;;;;;;-2.09;100.00;95003.00;5093894;28;20229;-77
2021/03/28 04:45:47;;;;;;;3.80;1.33;;;;;;;-1.99;100.00;95014.31;5094010;28;20259;-77
2021/03/28 04:48:39;;;;;;;7.00;1.47;;;;;;;-2.01;100.00;95013.59;5053302;28;20221;-78
2021/03/28 04:51:37;;;;;;;8.10;1.53;;;;;;;-1.84;100.00;95014.31;5092845;28;20348;-77
2021/03/28 04:54:36;;;;;;;6.83;1.70;;;;;;;-1.75;100.00;95012.00;5093812;28;20202;-77
2021/03/28 04:57:25;;;;;;;6.93;1.57;;;;;;;-1.76;100.00;95018.03;5093311;28;20213;-76
2021/03/28 05:00:34;;;;;;;4.57;1.20;;;;;;;-1.77;100.00;95021.50;5092818;28;20205;-77
2021/03/28 05:03:23;;;;;;;6.80;2.40;;;;;;;-1.95;100.00;95023.47;5092532;28;20202;-78
2021/03/28 05:06:19;;;;;;;4.67;1.20;;;;;;;-1.89;100.00;95023.06;5093581;28;20212;-77
2021/03/28 05:09:16;;;;;;;2.80;1.47;;;;;;;-2.03;100.00;95022.28;5080620;28;20232;-77
2021/03/28 05:12:14;;;;;;;8.27;1.47;;;;;;;-2.11;100.00;95012.50;5093591;28;20195;-77
2021/03/28 05:15:19;;;;;;;6.47;1.47;;;;;;;-2.12;100.00;95008.31;5092705;28;20726;-77
2021/03/28 05:18:22;;;;;;;7.73;1.60;;;;;;;-2.00;100.00;95020.34;5074023;28;20213;-77
2021/03/28 05:21:28;;;;;;;9.23;1.13;;;;;;;-1.97;100.00;95020.16;5092860;28;20229;-77
2021/03/28 05:24:26;;;;;;;9.17;1.70;;;;;;;-1.98;100.00;95026.22;5093160;28;20201;-77
2021/03/28 05:27:23;;;;;;;3.67;1.20;;;;;;;-1.87;100.00;95023.78;5090026;28;20198;-77
2021/03/28 05:30:53;;;;;;;3.97;1.30;;;;;;;-1.76;100.00;95024.91;5093040;28;20227;-77
2021/03/28 05:33:49;;;;;;;8.57;1.70;;;;;;;-1.88;100.00;95023.91;5030956;28;20235;-77
2021/03/28 05:36:31;;;;;;;8.27;1.65;;;;;;;-1.76;100.00;95006.97;5092307;28;20482;-79
2021/03/28 05:39:30;;;;;;;7.70;1.50;;;;;;;-1.86;100.00;95017.78;5092966;28;20206;-77
2021/03/28 05:42:30;;;;;;;7.43;1.73;;;;;;;-1.58;100.00;95005.84;5092908;28;20267;-77
2021/03/28 05:45:26;;;;;;;4.87;1.43;;;;;;;-1.49;100.00;95002.69;5088008;28;20206;-77
2021/03/28 05:48:16;;;;;;;3.20;1.20;;;;;;;-1.43;100.00;95010.88;5092511;28;20226;-77
2021/03/28 05:50:56;;;;;;;10.53;2.00;;;;;;;-1.33;100.00;95009.41;5092718;28;20259;-78
2021/03/28 05:53:59;;;;;;;5.07;1.40;;;;;;;-1.28;100.00;95006.53;5093193;28;20201;-77
2021/03/28 05:57:05;;;;;;;8.33;1.67;;;;;;;-1.20;100.00;95009.44;5091970;28;20202;-77
2021/03/28 06:00:00;;;;;;;10.60;1.63;;;;;;;-1.00;100.00;95014.13;5093017;28;20288;-77
2021/03/28 06:02:50;;;;;;;7.53;1.20;;;;;;;-0.91;100.00;95022.94;5092660;28;20206;-77
2021/03/28 06:05:49;;;;;;;4.50;1.33;;;;;;;-0.82;100.00;95030.03;5092756;28;20197;-78
2021/03/28 06:09:03;;;;;;;3.03;1.30;;;;;;;-0.76;100.00;95034.75;5092657;28;20275;-77
2021/03/28 06:12:11;;;;;;;6.80;1.57;;;;;;;-0.73;100.00;95044.00;5092458;28;20194;-78
2021/03/28 06:14:51;;;;;;;3.77;1.40;;;;;;;-0.72;100.00;95050.75;5070188;28;20202;-79
2021/03/28 06:17:25;;;;;;;7.47;1.57;;;;;;;-0.72;100.00;95053.31;5091394;28;20313;-77
2021/03/28 06:20:21;;;;;;;8.87;1.70;;;;;;;-0.75;100.00;95038.97;5092113;28;20240;-78
2021/03/28 06:23:32;;;;;;;10.60;1.80;;;;;;;-0.70;100.00;95033.56;5081038;28;20202;-77
2021/03/28 06:26:53;;;;;;;3.23;1.20;;;;;;;-0.63;100.00;95034.78;5096812;28;20209;-77
2021/03/28 06:29:57;;;;;;;6.53;1.50;;;;;;;-0.49;100.00;95038.19;5095730;28;20708;-77
2021/03/28 06:32:47;;;;;;;3.87;1.20;;;;;;;-0.29;100.00;95049.69;5095892;28;20198;-77
2021/03/28 06:35:49;;;;;;;11.97;1.63;;;;;;;-0.26;100.00;95070.81;5096671;28;20202;-77
2021/03/28 06:38:25;;;;;;;4.50;1.37;;;;;;;-0.19;100.00;95068.66;5096432;28;20208;-77
2021/03/28 06:41:08;;;;;;;4.10;1.60;;;;;;;-0.01;100.00;95072.56;5096457;28;20229;-78
2021/03/28 06:43:59;;;;;;;8.43;1.80;;;;;;;0.23;100.00;95069.25;5096526;28;20597;-77
2021/03/28 06:47:05;;;;;;;11.87;1.43;;;;;;;0.41;100.00;95079.19;5096073;28;20198;-77
2021/03/28 06:49:50;;;;;;;4.60;1.30;;;;;;;0.43;100.00;95085.03;5061232;28;20304;-76
2021/03/28 06:52:26;;;;;;;6.13;1.20;;;;;;;0.50;100.00;95086.25;5095287;28;20206;-76
2021/03/28 06:55:31;;;;;;;6.77;1.20;;;;;;;0.64;100.00;95077.59;5096267;28;20212;-78
2021/03/28 06:58:25;;;;;;;12.00;1.40;;;;;;;0.79;100.00;95080.84;5096342;28;20254;-76
2021/03/28 07:01:30;;;;;;;5.50;1.47;;;;;;;0.99;100.00;95082.00;5095015;28;20197;-77
2021/03/28 07:04:25;;;;;;;4.90;1.40;;;;;;;1.25;100.00;95087.81;5095897;28;20292;-77
2021/03/28 07:07:02;;;;;;;4.97;1.40;;;;;;;1.52;100.00;95086.78;5095685;28;20194;-77
2021/03/28 07:09:53;;;;;;;6.87;1.33;;;;;;;1.82;100.00;95092.22;5095341;28;20229;-77
2021/03/28 07:12:39;;;;;;;4.77;1.40;;;;;;;2.16;100.00;95088.88;5094932;28;20198;-78
2021/03/28 07:15:37;;;;;;;4.73;1.23;;;;;;;2.57;100.00;95085.69;5095702;28;20222;-77
2021/03/28 07:18:29;;;;;;;5.23;1.43;;;;;;;2.96;100.00;95078.38;5095721;28;20198;-78
2021/03/28 07:21:21;;;;;;;6.17;1.47;;;;;;;3.36;100.00;95073.53;5095048;28;20238;-77
2021/03/28 07:24:12;;;;;;;5.63;1.30;;;;;;;3.72;100.00;95080.06;5095562;28;20657;-76
2021/03/28 07:27:09;;;;;;;4.47;1.00;;;;;;;4.20;100.00;95058.84;5094709;28;20198;-77
2021/03/28 07:30:15;;;;;;;9.63;1.60;;;;;;;4.78;98.92;95042.69;5094939;28;20225;-77
2021/03/28 07:33:01;;;;;;;8.47;1.87;;;;;;;5.33;92.90;95031.03;5095500;28;20729;-76
2021/03/28 07:35:48;;;;;;;6.40;1.43;;;;;;;6.02;91.48;95014.41;5093288;28;20198;-77
2021/03/28 07:38:53;;;;;;;8.37;1.60;;;;;;;6.61;85.29;94998.59;5095127;28;20198;-77
2021/03/28 07:41:53;;;;;;;8.77;1.63;;;;;;;6.99;75.98;94996.72;5094120;28;20288;-75
2021/03/28 07:44:54;;;;;;;7.87;1.50;;;;;;;6.98;73.62;95008.09;5091799;28;20209;-77
2021/03/28 07:48:03;;;;;;;4.73;1.40;;;;;;;7.11;74.29;95012.88;5094588;28;20197;-76
2021/03/28 07:50:51;;;;;;;7.72;1.60;;;;;;;7.07;73.70;95016.75;5093873;28;20539;-78
2021/03/28 07:53:52;;;;;;;7.30;1.87;;;;;;;7.12;74.25;95035.31;5094694;28;20611;-77
2021/03/28 07:56:44;;;;;;;7.27;1.47;;;;;;;7.08;68.55;95033.94;5094560;28;20198;-76
2021/03/28 07:59:19;;;;;;;9.27;1.83;;;;;;;7.19;63.83;95041.53;5094601;28;20202;-76
2021/03/28 08:01:56;;;;;;;7.30;1.63;;;;;;;7.29;62.12;95052.66;5094162;28;20274;-77
2021/03/28 08:04:59;;;;;;;9.33;1.67;;;;;;;7.41;60.70;95056.69;5094794;28;20213;-78
2021/03/28 08:07:39;;;;;;;7.07;1.97;;;;;;;7.28;66.44;95056.25;5094790;28;20204;-77
2021/03/28 08:10:31;;;;;;;5.03;1.50;;;;;;;7.51;61.64;95050.56;5093911;28;20201;-79
2021/03/28 08:13:27;;;;;;;4.43;1.60;;;;;;;7.50;62.27;95048.97;5094165;28;20207;-77
2021/03/28 08:16:10;;;;;;;4.97;1.57;;;;;;;7.57;62.57;95056.00;5094436;28;20255;-75
2021/03/28 08:18:43;;;;;;;3.40;1.47;;;;;;;7.56;61.55;95066.53;5094162;28;20241;-78
2021/03/28 08:21:36;;;;;;;7.83;1.33;;;;;;;7.70;59.92;95066.00;5094453;28;20259;-77
2021/03/28 08:24:36;;;;;;;7.07;1.37;;;;;;;7.75;64.46;95070.78;5094367;28;20202;-77
2021/03/28 08:27:24;;;;;;;6.17;1.40;;;;;;;8.10;62.83;95071.66;5093478;28;20198;-77
2021/03/28 08:30:31;;;;;;;3.57;1.10;;;;;;;8.51;58.87;95075.34;5093942;28;20313;-77
2021/03/28 08:33:20;;;;;;;4.60;1.37;;;;;;;8.82;55.53;95087.84;5093921;28;20206;-76
2021/03/28 08:36:00;;;;;;;5.37;1.23;;;;;;;8.74;56.23;95080.00;5094377;28;20296;-79
2021/03/28 08:38:49;;;;;;;4.37;1.30;;;;;;;8.69;57.25;95082.25;5093273;28;20212;-78
2021/03/28 08:41:32;;;;;;;6.20;1.40;;;;;;;8.87;58.30;95101.19;5094244;28;20202;-78
2021/03/28 08:44:31;;;;;;;5.67;1.50;;;;;;;8.71;58.87;95098.56;5094095;28;20221;-77
2021/03/28 08:47:29;;;;;;;2.40;1.17;;;;;;;8.27;57.24;95098.59;5092829;28;20213;-77
2021/03/28 08:50:03;;;;;;;3.57;1.13;;;;;;;7.89;57.79;95100.59;5076728;28;20222;-79
2021/03/28 08:53:10;;;;;;;10.73;1.60;;;;;;;7.87;58.19;95102.53;5093919;28;20225;-78
2021/03/28 08:56:12;;;;;;;5.83;1.33;;;;;;;7.72;58.96;95104.84;5062724;28;20198;-77
2021/03/28 08:58:47;;;;;;;7.27;1.50;;;;;;;7.68;61.38;95099.16;5093995;28;20280;-77
2021/03/28 09:01:19;;;;;;;6.87;1.60;;;;;;;7.74;57.95;95108.94;5092325;28;20675;-78
2021/03/28 09:04:03;;;;;;;8.40;1.43;;;;;;;7.70;58.30;95114.59;5093143;28;20680;-77
2021/03/28 09:06:45;;;;;;;6.20;1.20;;;;;;;7.57;58.94;95107.16;5093394;28;20202;-77
2021/03/28 09:09:30;;;;;;;6.10;1.23;;;;;;;7.57;60.65;95104.56;5093121;28;20565;-76
2021/03/28 09:12:00;;;;;;;5.37;1.53;;;;;;;7.64;60.21;95097.78;5093182;28;20818;-77
2021/03/28 09:14:53;;;;;;;4.10;1.40;;;;;;;7.80;59.41;95110.13;5093485;28;20202;-76
2021/03/28 09:17:25;;;;;;;7.53;1.50;;;;;;;7.73;59.71;95103.91;5092849;28;20200;-77
2021/03/28 09:20:14;;;;;;;7.77;1.50;;;;;;;7.65;61.87;95096.84;5092677;28;20229;-77
2021/03/28 09:22:51;;;;;;;6.77;1.23;;;;;;;7.74;61.15;95103.75;5093451;28;20202;-77
2021/03/28 09:25:25;;;;;;;3.03;1.30;;;;;;;7.75;62.20;95100.16;5093346;28;20202;-76
2021/03/28 09:27:59;;;;;;;10.57;1.53;;;;;;;7.87;59.99;95102.53;5093516;28;20293;-77
2021/03/28 09:30:31;;;;;;;7.85;1.50;;;;;;;7.94;64.02;95096.59;5092662;28;20441;-77
2021/03/28 09:33:15;;;;;;;6.90;1.43;;;;;;;8.27;64.71;95088.19;5093067;28;20209;-79
2021/03/28 09:36:23;;;;;;;6.43;1.63;;;;;;;8.37;60.14;95094.09;5093476;28;20205;-82
2021/03/28 09:39:27;;;;;;;3.47;1.20;;;;;;;8.41;61.85;95092.84;5089128;28;20560;-81
2021/03/28 09:42:28;;;;;;;6.30;2.20;;;;;;;8.57;63.89;95099.94;5092955;28;20193;-81
2021/03/28 09:45:31;;;;;;;5.63;1.33;;;;;;;8.55;62.19;95101.88;5093061;28;20197;-80
2021/03/28 09:48:21;;;;;;;7.40;1.47;;;;;;;8.58;63.52;95096.38;5092141;28;20717;-83
2021/03/28 09:51:01;;;;;;;3.57;1.30;;;;;;;8.65;62.37;95088.75;5093424;28;20205;-80
2021/03/28 09:53:41;;;;;;;4.37;1.40;;;;;;;8.55;60.60;95081.06;5092500;28;20198;-81
2021/03/28 09:56:42;;;;;;;8.03;1.47;;;;;;;8.60;61.43;95076.19;5092983;28;20258;-82
2021/03/28 09:59:23;;;;;;;9.47;1.20;;;;;;;8.66;61.44;95078.19;5092766;28;20233;-80
2021/03/28 10:02:16;;;;;;;6.10;1.63;;;;;;;8.72;64.08;95074.13;5092880;28;20652;-78
2021/03/28 10:05:10;;;;;;;4.97;1.40;;;;;;;8.92;59.14;95076.50;5065687;28;20441;-81
2021/03/28 10:07:47;;;;;;;6.07;1.43;;;;;;;8.91;59.35;95070.47;5093166;28;20205;-79
2021/03/28 10:10:41;;;;;;;8.03;1.90;;;;;;;8.88;62.35;95071.59;5092842;28;20308;-78
2021/03/28 10:13:19;;;;;;;5.45;1.50;;;;;;;9.05;60.38;95071.66;5090272;28;20444;-82
2021/03/28 10:15:57;;;;;;;6.40;1.53;;;;;;;9.10;57.58;95079.81;5092720;28;20198;-79
2021/03/28 10:18:39;;;;;;;4.80;1.20;;;;;;;9.19;56.65;95065.84;5092617;28;20292;-78
2021/03/28 10:21:29;;;;;;;4.77;1.37;;;;;;;9.00;57.28;95072.13;5092539;28;20229;-79
2021/03/28 10:24:13;;;;;;;5.70;1.70;;;;;;;9.02;58.16;95061.53;5058858;28;20251;-79
2021/03/28 10:27:05;;;;;;;5.23;1.63;;;;;;;9.15;56.26;95072.31;5092574;28;20675;-78
2021/03/28 10:29:54;;;;;;;4.43;1.40;;;;;;;9.30;57.22;95059.50;5092552;28;20266;-80
2021/03/28 10:32:43;;;;;;;5.13;1.03;;;;;;;9.36;57.52;95064.06;5092621;28;20653;-81
2021/03/28 10:35:26;;;;;;;6.70;1.40;;;;;;;9.52;57.20;95049.41;5092492;28;20722;-78
2021/03/28 10:38:13;;;;;;;6.57;1.40;;;;;;;9.69;56.17;95055.44;5092628;28;20232;-78
2021/03/28 10:40:44;;;;;;;6.70;1.53;;;;;;;9.76;56.50;95048.63;5092583;28;20280;-77
2021/03/28 10:43:27;;;;;;;5.53;1.30;;;;;;;10.03;54.43;95059.69;5092386;28;20202;-79
2021/03/28 10:46:14;;;;;;;6.53;1.17;;;;;;;9.96;52.95;95059.53;5092465;28;20587;-80
2021/03/28 10:49:16;;;;;;;3.07;1.20;;;;;;;10.12;54.85;95058.69;5092332;28;20233;-80
2021/03/28 10:52:34;;;;;;;3.27;1.27;;;;;;;10.22;52.93;95053.28;5092547;28;20197;-79
2021/03/28 10:55:35;;;;;;;5.83;1.40;;;;;;;10.32;52.55;95054.75;5092346;28;20660;-80
2021/03/28 10:58:46;;;;;;;4.17;1.00;;;;;;;10.40;51.20;95056.53;5092309;28;20208;-77
2021/03/28 11:01:45;;;;;;;5.38;1.60;;;;;;;10.38;52.31;95036.81;5092282;28;20545;-78
2021/03/28 11:04:45;;;;;;;6.63;1.73;;;;;;;10.52;52.57;95043.94;5091903;28;20198;-80
2021/03/28 11:07:38;;;;;;;5.43;1.00;;;;;;;10.55;52.52;95038.38;5072003;28;20580;-79
2021/03/28 11:10:55;;;;;;;2.73;1.13;;;;;;;10.67;51.85;95049.25;5075260;28;20230;-78
2021/03/28 11:13:44;;;;;;;2.10;1.13;;;;;;;10.64;50.64;95040.00;5073208;28;20273;-78
2021/03/28 11:16:26;;;;;;;4.33;1.20;;;;;;;10.59;52.24;95034.47;5073353;28;20290;-78
2021/03/28 11:19:30;;;;;;;4.63;1.27;;;;;;;10.74;54.72;95037.16;5074472;28;20285;-78
2021/03/28 11:22:12;;;;;;;5.57;1.50;;;;;;;10.82;55.71;95033.69;5075187;28;20206;-79
2021/03/28 11:24:57;;;;;;;5.43;1.60;;;;;;;11.04;54.00;95026.88;5075459;28;20198;-78
2021/03/28 11:27:56;;;;;;;8.47;1.30;;;;;;;11.16;52.91;95025.53;5075521;28;20264;-81
2021/03/28 11:30:36;;;;;;;6.57;1.30;;;;;;;11.27;52.23;95022.50;5075189;28;20252;-80
2021/03/28 11:33:24;;;;;;;11.93;1.70;;;;;;;11.17;49.99;95027.13;5075357;28;20199;-79
2021/03/28 11:36:15;;;;;;;7.70;2.10;;;;;;;11.23;46.97;95028.25;5075113;28;20242;-78
2021/03/28 11:39:02;;;;;;;3.47;1.50;;;;;;;11.11;52.22;95018.19;5075141;28;20286;-80
2021/03/28 11:41:43;;;;;;;3.50;1.30;;;;;;;11.27;50.11;95019.06;5075104;28;20290;-80
2021/03/28 11:44:18;;;;;;;3.67;1.40;;;;;;;11.37;48.04;95017.03;5075171;28;20199;-80
2021/03/28 11:46:56;;;;;;;6.20;1.43;;;;;;;11.51;51.07;95012.03;5074979;28;20649;-79
2021/03/28 11:49:31;;;;;;;5.90;1.57;;;;;;;11.64;51.97;95017.47;5074282;28;20454;-79
2021/03/28 11:52:16;;;;;;;4.20;1.47;;;;;;;11.90;53.56;95009.25;5074886;28;20256;-79
2021/03/28 11:55:02;;;;;;;5.17;1.23;;;;;;;11.90;51.17;95013.69;5074926;28;20206;-78
2021/03/28 11:57:31;;;;;;;3.33;1.40;;;;;;;11.86;48.38;95015.84;5074857;28;20206;-79
2021/03/28 12:00:38;;;;;;;5.67;1.40;;;;;;;11.59;46.32;95015.41;5074921;28;20195;-79
2021/03/28 12:03:39;;;;;;;5.33;1.60;;;;;;;11.60;50.00;95011.00;5074741;28;20202;-84
2021/03/28 12:06:09;;;;;;;4.67;1.37;;;;;;;11.91;48.84;95004.84;5074709;28;20657;-82
2021/03/28 12:08:57;;;;;;;3.40;1.40;;;;;;;11.97;48.55;94996.31;5075422;28;20272;-81
2021/03/28 12:11:37;;;;;;;5.70;1.53;;;;;;;12.19;50.50;94995.44;5074638;28;20207;-80
2021/03/28 12:14:19;;;;;;;2.47;1.20;;;;;;;12.29;43.74;94995.16;5074473;28;20534;-81
2021/03/28 12:17:15;;;;;;;4.07;1.53;;;;;;;12.21;45.92;94993.44;5074732;28;20195;-80
2021/03/28 12:19:45;;;;;;;4.13;1.37;;;;;;;12.12;45.29;94994.50;5074091;28;20234;-82
2021/03/28 12:22:17;;;;;;;6.30;1.50;;;;;;;12.10;46.32;94988.66;5074031;28;20207;-79
2021/03/28 12:24:56;;;;;;;7.50;1.47;;;;;;;12.27;44.47;94985.84;5074171;28;20237;-81
2021/03/28 12:27:30;;;;;;;6.17;2.00;;;;;;;12.32;46.45;94975.66;5074122;28;20660;-80
2021/03/28 12:29:56;;;;;;;9.73;1.60;;;;;;;12.17;44.23;94973.03;5074118;28;20229;-81
2021/03/28 12:32:50;;;;;;;2.60;1.30;;;;;;;12.27;45.30;94970.13;5074071;28;20666;-81
2021/03/28 12:35:25;;;;;;;4.10;1.40;;;;;;;12.39;42.98;94953.00;5074069;28;20203;-80
2021/03/28 12:37:53;;;;;;;1.47;1.10;;;;;;;12.47;41.58;94955.50;5074040;28;20198;-80
2021/03/28 12:40:39;;;;;;;4.23;1.20;;;;;;;12.83;40.67;94954.72;5073949;28;20299;-80
2021/03/28 12:43:29;;;;;;;3.33;1.40;;;;;;;12.63;40.32;94951.06;5073653;28;20210;-82
2021/03/28 12:45:56;;;;;;;2.50;1.10;;;;;;;12.71;40.36;94951.75;5073761;28;20206;-81
2021/03/28 12:48:35;;;;;;;2.70;1.20;;;;;;;12.82;42.01;94947.84;5073469;28;20214;-82
2021/03/28 12:51:02;;;;;;;3.87;1.00;;;;;;;12.88;38.16;94951.53;5073614;28;20635;-82
2021/03/28 12:53:34;;;;;;;3.67;1.10;;;;;;;12.80;38.69;94952.44;5075932;28;20202;-79
2021/03/28 12:56:01;;;;;;;3.30;1.10;;;;;;;12.90;37.19;94960.03;5093896;28;20198;-78
2021/03/28 12:58:42;;;;;;;2.83;1.20;;;;;;;12.93;41.57;94955.22;5094034;28;20263;-82
2021/03/28 13:01:26;;;;;;;2.67;1.20;;;;;;;13.14;39.22;94956.25;5093972;28;20213;-79
2021/03/28 13:03:54;;;;;;;3.33;1.60;;;;;;;13.10;37.69;94952.38;5093681;28;20213;-80